createdAt,value
2022-12-04T00:01:06.890Z,112.97
2022-12-04T00:03:34.053Z,106.45
2022-12-04T00:06:15.264Z,107.20
2022-12-04T00:08:42.265Z,111.53
2022-12-04T00:11:10.503Z,106.18
2022-12-04T00:13:37.530Z,113.80
2022-12-04T00:16:06.570Z,101.25
2022-12-04T00:18:33.173Z,103.88
2022-12-04T00:20:59.658Z,108.30
2022-12-04T00:23:26.090Z,106.57
2022-12-04T00:25:53.259Z,113.47
2022-12-04T00:28:19.659Z,110.80
2022-12-04T00:30:46.986Z,122.50
2022-12-04T00:33:14.066Z,120.10
2022-12-04T00:35:40.916Z,127.68
2022-12-04T00:38:07.328Z,111.60
2022-12-04T00:40:33.716Z,115.28
2022-12-04T00:43:00.169Z,113.38
2022-12-04T00:45:26.676Z,114.35
2022-12-04T00:47:53.120Z,108.78
2022-12-04T00:50:19.688Z,111.22
2022-12-04T00:52:46.123Z,114.10
2022-12-04T00:55:12.785Z,117.78
2022-12-04T00:57:39.226Z,120.20
2022-12-04T01:00:07.153Z,113.68
2022-12-04T01:02:33.895Z,119.95
2022-12-04T01:05:02.151Z,118.70
2022-12-04T01:07:28.626Z,130.73
2022-12-04T01:09:55.364Z,125.00
2022-12-04T01:12:22.115Z,124.78
2022-12-04T01:14:48.478Z,134.82
2022-12-04T01:17:14.919Z,134.55
2022-12-04T01:19:41.275Z,123.80
2022-12-04T01:22:07.684Z,138.45
2022-12-04T01:24:34.080Z,125.13
2022-12-04T01:27:00.464Z,135.48
2022-12-04T01:29:26.874Z,135.70
2022-12-04T01:31:53.312Z,127.30
2022-12-04T01:34:19.751Z,130.60
2022-12-04T01:36:46.348Z,129.65
2022-12-04T01:39:12.706Z,131.05
2022-12-04T01:41:39.192Z,132.77
2022-12-04T01:44:09.710Z,129.00
2022-12-04T01:46:36.155Z,128.55
2022-12-04T01:49:03.008Z,132.23
2022-12-04T01:51:35.697Z,125.95
2022-12-04T01:54:10.690Z,134.07
2022-12-04T01:56:45.325Z,122.03
2022-12-04T01:59:15.382Z,122.15
2022-12-04T02:01:59.822Z,126.50
2022-12-04T02:04:26.421Z,131.30
2022-12-04T02:06:52.841Z,133.15
2022-12-04T02:09:26.132Z,146.90
2022-12-04T02:12:03.749Z,137.38
2022-12-04T02:14:32.924Z,141.50
2022-12-04T02:17:28.884Z,138.63
2022-12-04T02:20:15.228Z,139.57
2022-12-04T02:23:05.562Z,148.87
2022-12-04T02:25:45.039Z,149.32
2022-12-04T02:28:49.087Z,162.45
2022-12-04T02:31:21.517Z,150.25
2022-12-04T02:34:18.087Z,139.25
2022-12-04T02:36:50.804Z,139.35
2022-12-04T02:39:25.194Z,141.40
2022-12-04T02:42:01.365Z,136.77
2022-12-04T02:44:50.623Z,150.82
2022-12-04T02:47:21.059Z,153.35
2022-12-04T02:49:54.066Z,162.55
2022-12-04T02:52:24.609Z,144.52
2022-12-04T02:55:02.908Z,159.77
2022-12-04T02:57:38.038Z,163.00
2022-12-04T03:00:07.898Z,166.60
2022-12-04T03:02:47.209Z,165.10
2022-12-04T03:05:18.290Z,160.90
2022-12-04T03:07:51.365Z,161.40
2022-12-04T03:10:40.177Z,160.60
2022-12-04T03:13:11.599Z,150.98
2022-12-04T03:15:46.903Z,152.98
2022-12-04T03:18:18.304Z,161.05
2022-12-04T03:20:48.049Z,158.40
2022-12-04T03:23:32.896Z,163.50
2022-12-04T03:26:04.251Z,159.90
2022-12-04T03:28:49.733Z,161.52
2022-12-04T03:31:20.329Z,162.07
2022-12-04T03:33:47.909Z,180.80
2022-12-04T03:36:37.247Z,158.77
2022-12-04T03:39:13.413Z,166.02
2022-12-04T03:41:57.853Z,173.45
2022-12-04T03:44:48.161Z,166.68
2022-12-04T03:47:25.492Z,161.38
2022-12-04T03:50:37.911Z,156.95
2022-12-04T03:53:27.213Z,146.63
2022-12-04T03:56:01.953Z,157.82
2022-12-04T03:58:31.084Z,163.68
2022-12-04T04:00:59.975Z,157.23
2022-12-04T04:03:30.882Z,145.20
2022-12-04T04:06:02.590Z,158.38
2022-12-04T04:08:34.936Z,150.93
2022-12-04T04:11:16.701Z,154.90
2022-12-04T04:14:11.074Z,144.25
2022-12-04T04:17:01.338Z,141.32
2022-12-04T04:19:50.154Z,148.50
2022-12-04T04:22:37.704Z,134.27
2022-12-04T04:25:14.566Z,147.30
2022-12-04T04:27:41.022Z,131.68
2022-12-04T04:30:09.221Z,140.77
2022-12-04T04:32:42.567Z,147.18
2022-12-04T04:35:22.828Z,143.88
2022-12-04T04:38:06.563Z,142.27
2022-12-04T04:40:56.491Z,143.00
2022-12-04T04:43:35.471Z,141.57
2022-12-04T04:46:11.351Z,144.60
2022-12-04T04:48:44.781Z,144.88
2022-12-04T04:51:11.596Z,148.88
2022-12-04T04:53:48.980Z,155.52
2022-12-04T04:58:43.034Z,134.15
2022-12-04T05:01:13.358Z,142.23
2022-12-04T05:03:40.505Z,145.23
2022-12-04T05:06:07.366Z,151.68
2022-12-04T05:08:34.891Z,139.00
2022-12-04T05:13:29.461Z,148.63
2022-12-04T05:16:01.162Z,150.20
2022-12-04T05:18:28.061Z,132.55
2022-12-04T05:20:54.540Z,134.73
2022-12-04T05:23:21.595Z,137.95
2022-12-04T05:25:48.004Z,140.30
2022-12-04T05:28:14.893Z,138.05
2022-12-04T05:30:41.535Z,148.48
2022-12-04T05:33:07.973Z,133.03
2022-12-04T05:35:34.393Z,140.65
2022-12-04T05:38:00.807Z,153.68
2022-12-04T05:40:27.186Z,138.80
2022-12-04T05:42:53.576Z,145.20
2022-12-04T05:45:19.967Z,155.57
2022-12-04T05:47:46.367Z,155.82
2022-12-04T05:50:13.887Z,154.45
2022-12-04T05:55:07.194Z,146.80
2022-12-04T05:57:33.640Z,157.73
2022-12-04T06:00:00.073Z,145.25
2022-12-04T06:02:26.491Z,143.05
2022-12-04T06:04:52.950Z,157.38
2022-12-04T06:07:19.470Z,151.80
2022-12-04T06:09:45.837Z,148.32
2022-12-04T06:12:12.222Z,159.98
2022-12-04T06:14:40.005Z,155.82
2022-12-04T06:17:07.322Z,143.65
2022-12-04T06:19:33.839Z,154.50
2022-12-04T06:22:00.228Z,158.23
2022-12-04T06:24:26.623Z,157.60
2022-12-04T06:27:26.862Z,158.20
2022-12-04T06:29:44.204Z,160.13
2022-12-04T06:32:10.588Z,181.57
2022-12-04T06:34:37.086Z,174.32
2022-12-04T06:37:03.557Z,162.27
2022-12-04T06:39:29.905Z,179.82
2022-12-04T06:41:56.320Z,193.60
2022-12-04T06:44:22.716Z,186.38
2022-12-04T06:46:50.039Z,173.95
2022-12-04T06:49:16.632Z,168.77
2022-12-04T06:51:43.061Z,168.40
2022-12-04T06:54:10.192Z,171.27
2022-12-04T06:56:36.578Z,175.63
2022-12-04T06:59:04.323Z,183.45
2022-12-04T07:01:33.446Z,173.43
2022-12-04T07:04:03.343Z,180.88
2022-12-04T07:06:32.579Z,166.48
2022-12-04T07:09:05.937Z,179.15
2022-12-04T07:11:33.418Z,176.07
2022-12-04T07:13:59.957Z,171.95
2022-12-04T07:16:27.935Z,173.38
2022-12-04T07:18:56.540Z,157.25
2022-12-04T07:21:26.369Z,161.90
2022-12-04T07:23:56.078Z,166.93
2022-12-04T07:26:24.218Z,158.98
2022-12-04T07:28:50.928Z,160.75
2022-12-04T07:31:20.373Z,160.13
2022-12-04T07:33:47.484Z,157.52
2022-12-04T07:36:16.737Z,162.82
2022-12-04T07:38:43.196Z,159.30
2022-12-04T07:41:11.921Z,175.68
2022-12-04T07:43:38.371Z,163.98
2022-12-04T07:46:12.608Z,158.90
2022-12-04T07:48:39.094Z,160.00
2022-12-04T07:51:08.235Z,168.25
2022-12-04T07:53:35.400Z,180.20
2022-12-04T07:56:02.710Z,173.77
2022-12-04T07:58:29.188Z,182.32
2022-12-04T08:00:55.657Z,171.93
2022-12-04T08:03:22.120Z,166.77
2022-12-04T08:05:48.508Z,188.55
2022-12-04T08:08:14.921Z,158.00
2022-12-04T08:10:41.460Z,156.13
2022-12-04T08:13:07.845Z,161.07
2022-12-04T08:15:35.021Z,149.13
2022-12-04T08:18:01.378Z,159.95
2022-12-04T08:20:27.761Z,174.13
2022-12-04T08:22:54.132Z,156.45
2022-12-04T08:25:20.492Z,162.93
2022-12-04T08:27:47.994Z,156.10
2022-12-04T08:32:40.948Z,164.13
2022-12-04T08:35:07.741Z,147.57
2022-12-04T08:37:34.249Z,399.08
2022-12-04T08:40:00.583Z,225.57
2022-12-04T08:42:27.007Z,182.57
2022-12-04T08:44:53.382Z,154.38
2022-12-04T08:47:19.792Z,194.80
2022-12-04T08:49:46.157Z,185.65
2022-12-04T08:52:12.518Z,177.85
2022-12-04T08:54:38.906Z,170.88
2022-12-04T08:57:05.359Z,161.60
2022-12-04T08:59:31.836Z,139.25
2022-12-04T09:01:58.305Z,149.27
2022-12-04T09:04:24.789Z,138.38
2022-12-04T09:06:51.260Z,135.25
2022-12-04T09:09:17.696Z,135.10
2022-12-04T09:11:47.126Z,136.77
2022-12-04T09:14:13.528Z,137.65
2022-12-04T09:16:40.035Z,134.35
2022-12-04T09:19:06.391Z,140.88
2022-12-04T09:21:33.053Z,139.18
2022-12-04T09:23:59.611Z,144.77
2022-12-04T09:26:29.423Z,129.00
2022-12-04T09:28:56.523Z,136.05
2022-12-04T09:31:24.097Z,131.20
2022-12-04T09:36:17.360Z,124.85
2022-12-04T09:38:45.850Z,127.73
2022-12-04T09:41:36.366Z,127.47
2022-12-04T09:44:23.239Z,121.93
2022-12-04T09:47:09.821Z,124.38
2022-12-04T09:49:41.514Z,124.75
2022-12-04T09:52:25.895Z,126.82
2022-12-04T09:54:53.856Z,136.27
2022-12-04T09:57:28.266Z,126.72
2022-12-04T09:59:55.236Z,132.55
2022-12-04T10:02:35.228Z,128.60
2022-12-04T10:05:02.313Z,139.10
2022-12-04T10:07:59.130Z,134.57
2022-12-04T10:10:35.347Z,130.68
2022-12-04T10:13:40.587Z,129.07
2022-12-04T10:16:14.795Z,137.57
2022-12-04T10:18:48.081Z,140.55
2022-12-04T10:21:33.779Z,140.55
2022-12-04T10:24:23.950Z,142.48
2022-12-04T10:26:52.218Z,129.73
2022-12-04T10:29:27.603Z,128.38
2022-12-04T10:31:56.043Z,134.98
2022-12-04T10:34:28.019Z,128.10
2022-12-04T10:37:00.361Z,121.55
2022-12-04T10:39:34.868Z,126.93
2022-12-04T10:42:08.929Z,145.23
2022-12-04T10:44:35.378Z,126.22
2022-12-04T10:47:03.984Z,147.25
2022-12-04T10:49:34.117Z,143.20
2022-12-04T10:52:00.805Z,127.72
2022-12-04T10:54:35.920Z,124.57
2022-12-04T10:57:08.306Z,114.07
2022-12-04T10:59:35.338Z,111.75
2022-12-04T11:02:12.513Z,108.28
2022-12-04T11:04:41.905Z,105.45
2022-12-04T11:07:18.606Z,115.20
2022-12-04T11:09:55.301Z,112.70
2022-12-04T11:12:23.052Z,112.63
2022-12-04T11:17:26.039Z,243.80
2022-12-04T11:20:04.713Z,120.55
2022-12-04T11:22:31.692Z,129.63
2022-12-04T11:24:59.571Z,121.80
2022-12-04T11:27:31.705Z,125.05
2022-12-04T11:30:01.887Z,126.80
2022-12-04T11:32:33.146Z,127.80
2022-12-04T11:35:06.207Z,122.93
2022-12-04T11:37:34.678Z,126.43
2022-12-04T11:40:05.161Z,129.52
2022-12-04T11:42:31.975Z,128.43
2022-12-04T11:45:00.899Z,123.13
2022-12-04T11:47:32.687Z,119.88
2022-12-04T11:50:13.308Z,130.65
2022-12-04T11:53:07.389Z,125.00
2022-12-04T11:55:55.574Z,126.95
2022-12-04T11:58:40.884Z,134.95
2022-12-04T12:01:24.750Z,124.68
2022-12-04T12:04:24.931Z,126.50
2022-12-04T12:07:16.751Z,121.40
2022-12-04T12:09:57.359Z,122.72
2022-12-04T12:12:42.065Z,120.57
2022-12-04T12:15:30.204Z,145.13
2022-12-04T12:18:29.519Z,129.07
2022-12-04T12:21:07.799Z,132.23
2022-12-04T12:24:06.324Z,130.25
2022-12-04T12:26:48.828Z,128.35
2022-12-04T12:29:21.208Z,130.93
2022-12-04T12:31:53.551Z,128.73
2022-12-04T12:34:35.092Z,138.82
2022-12-04T12:37:19.450Z,122.60
2022-12-04T12:39:55.794Z,130.18
2022-12-04T12:42:28.466Z,131.05
2022-12-04T12:45:03.812Z,120.35
2022-12-04T12:47:38.685Z,134.73
2022-12-04T12:50:15.457Z,120.43
2022-12-04T12:52:52.463Z,127.03
2022-12-04T12:55:27.238Z,126.90
2022-12-04T12:58:05.553Z,125.05
2022-12-04T13:00:39.139Z,124.05
2022-12-04T13:03:37.350Z,126.10
2022-12-04T13:06:09.747Z,124.53
2022-12-04T13:08:47.884Z,126.40
2022-12-04T13:11:22.416Z,121.85
2022-12-04T13:13:53.191Z,120.05
2022-12-04T13:16:21.463Z,122.32
2022-12-04T13:19:00.486Z,130.75
2022-12-04T13:21:46.028Z,128.30
2022-12-04T13:24:39.993Z,139.57
2022-12-04T13:27:32.880Z,127.38
2022-12-04T13:30:23.199Z,134.15
2022-12-04T13:33:23.583Z,140.65
2022-12-04T13:36:15.453Z,142.65
2022-12-04T13:39:08.324Z,146.85
2022-12-04T13:41:38.057Z,137.38
2022-12-04T13:44:14.758Z,148.57
2022-12-04T13:46:51.745Z,150.50
2022-12-04T13:49:18.071Z,148.18
2022-12-04T13:51:45.966Z,143.50
2022-12-04T13:54:12.275Z,140.25
2022-12-04T13:56:44.002Z,148.73
2022-12-04T13:59:29.503Z,145.77
2022-12-04T14:02:01.281Z,138.63
2022-12-04T14:04:46.701Z,141.20
2022-12-04T14:07:33.247Z,150.35
2022-12-04T14:10:04.859Z,141.10
2022-12-04T14:12:40.843Z,146.95
2022-12-04T14:15:19.510Z,159.73
2022-12-04T14:17:56.391Z,159.55
2022-12-04T14:20:28.614Z,147.25
2022-12-04T14:22:55.126Z,144.38
2022-12-04T14:25:32.181Z,158.93
2022-12-04T14:27:58.600Z,146.13
2022-12-04T14:30:32.936Z,153.13
2022-12-04T14:33:16.282Z,145.60
2022-12-04T14:36:38.014Z,145.05
2022-12-04T14:39:16.354Z,141.55
2022-12-04T14:41:42.880Z,153.60
2022-12-04T14:44:24.957Z,145.90
2022-12-04T14:46:53.012Z,158.63
2022-12-04T14:49:46.467Z,140.05
2022-12-04T14:52:15.578Z,144.85
2022-12-04T14:55:06.691Z,137.18
2022-12-04T14:57:48.185Z,144.50
2022-12-04T15:00:20.683Z,140.02
2022-12-04T15:02:49.180Z,151.57
2022-12-04T15:05:26.304Z,155.25
2022-12-04T15:07:59.044Z,149.23
2022-12-04T15:10:47.316Z,154.50
2022-12-04T15:13:25.788Z,141.90
2022-12-04T15:15:52.652Z,131.43
2022-12-04T15:18:19.180Z,143.77
2022-12-04T15:20:48.321Z,132.55
2022-12-04T15:23:17.047Z,132.85
2022-12-04T15:25:46.748Z,155.52
2022-12-04T15:28:18.729Z,143.93
2022-12-04T15:30:46.925Z,148.07
2022-12-04T15:33:21.474Z,149.88
2022-12-04T15:35:54.307Z,151.70
2022-12-04T15:38:21.097Z,148.68
2022-12-04T15:40:53.572Z,143.93
2022-12-04T15:43:39.239Z,149.52
2022-12-04T15:46:22.734Z,159.40
2022-12-04T15:48:49.458Z,151.95
2022-12-04T15:51:19.386Z,150.80
2022-12-04T15:53:46.968Z,153.05
2022-12-04T15:59:02.428Z,128.57
2022-12-04T16:01:38.847Z,149.95
2022-12-04T16:04:05.552Z,138.50
2022-12-04T16:06:33.601Z,132.25
2022-12-04T16:09:22.887Z,137.48
2022-12-04T16:12:25.548Z,147.52
2022-12-04T16:14:54.152Z,140.13
2022-12-04T16:17:27.677Z,141.10
2022-12-04T16:19:55.741Z,134.48
2022-12-04T16:22:23.647Z,129.65
2022-12-04T16:24:51.053Z,129.27
2022-12-04T16:27:22.572Z,136.05
2022-12-04T16:29:50.045Z,120.97
2022-12-04T16:32:19.233Z,126.63
2022-12-04T16:34:46.248Z,122.65
2022-12-04T16:37:13.678Z,129.55
2022-12-04T16:39:41.620Z,126.10
2022-12-04T16:42:17.786Z,130.40
2022-12-04T16:44:44.946Z,132.48
2022-12-04T16:47:12.408Z,137.20
2022-12-04T16:49:39.571Z,123.40
2022-12-04T16:52:06.547Z,124.40
2022-12-04T16:54:32.980Z,131.02
2022-12-04T16:56:59.433Z,133.43
2022-12-04T16:59:25.802Z,134.45
2022-12-04T17:01:52.965Z,132.55
2022-12-04T17:04:19.435Z,123.13
2022-12-04T17:06:46.038Z,126.47
2022-12-04T17:09:13.404Z,125.50
2022-12-04T17:11:40.659Z,118.95
2022-12-04T17:14:07.437Z,129.60
2022-12-04T17:16:35.788Z,135.55
2022-12-04T17:19:02.637Z,121.50
2022-12-04T17:21:29.102Z,130.90
2022-12-04T17:23:55.608Z,130.45
2022-12-04T17:26:22.281Z,128.13
2022-12-04T17:28:52.100Z,129.90
2022-12-04T17:31:25.224Z,125.63
2022-12-04T17:33:52.523Z,126.97
2022-12-04T17:36:21.831Z,122.07
2022-12-04T17:38:48.583Z,122.93
2022-12-04T17:41:15.779Z,117.90
2022-12-04T17:43:43.485Z,128.32
2022-12-04T17:46:12.252Z,123.57
2022-12-04T17:48:39.397Z,128.73
2022-12-04T17:51:12.511Z,134.85
2022-12-04T17:53:39.461Z,132.93
2022-12-04T17:56:17.825Z,136.90
2022-12-04T17:58:45.116Z,139.55
2022-12-04T18:01:23.477Z,141.77
2022-12-04T18:03:55.629Z,136.40
2022-12-04T18:06:26.850Z,136.95
2022-12-04T18:08:53.813Z,126.07
2022-12-04T18:11:23.241Z,147.95
2022-12-04T18:13:54.870Z,144.50
2022-12-04T18:16:21.369Z,183.90
2022-12-04T18:18:47.921Z,156.45
2022-12-04T18:21:14.745Z,137.48
2022-12-04T18:23:45.652Z,142.65
2022-12-04T18:26:14.739Z,162.65
2022-12-04T18:28:41.838Z,343.40
2022-12-04T18:31:08.624Z,197.40
2022-12-04T18:33:37.144Z,160.80
2022-12-04T18:36:05.139Z,170.18
2022-12-04T18:38:32.073Z,142.15
2022-12-04T18:41:03.246Z,133.57
2022-12-04T18:43:29.699Z,124.72
2022-12-04T18:46:06.865Z,139.43
2022-12-04T18:48:34.692Z,127.22
2022-12-04T18:51:01.109Z,133.88
2022-12-04T18:53:27.634Z,125.05
2022-12-04T18:55:54.438Z,106.67
2022-12-04T18:58:22.803Z,117.35
2022-12-04T19:00:49.339Z,110.78
2022-12-04T19:03:15.850Z,114.45
2022-12-04T19:05:51.482Z,106.50
2022-12-04T19:08:18.233Z,107.47
2022-12-04T19:10:44.748Z,105.55
2022-12-04T19:13:11.134Z,107.60
2022-12-04T19:15:44.571Z,108.50
2022-12-04T19:18:11.581Z,109.93
2022-12-04T19:20:42.217Z,106.95
2022-12-04T19:23:08.920Z,100.35
2022-12-04T19:25:35.513Z,98.57
2022-12-04T19:28:03.170Z,98.47
2022-12-04T19:30:30.145Z,123.40
2022-12-04T19:32:56.986Z,103.78
2022-12-04T19:35:23.380Z,105.45
2022-12-04T19:37:53.762Z,99.93
2022-12-04T19:40:21.032Z,90.53
2022-12-04T19:42:47.639Z,84.72
2022-12-04T19:45:14.189Z,80.10
2022-12-04T19:47:40.611Z,82.65
2022-12-04T19:50:07.694Z,93.00
2022-12-04T19:52:34.267Z,93.25
2022-12-04T19:55:00.619Z,86.03
2022-12-04T19:57:27.397Z,98.88
2022-12-04T19:59:53.749Z,96.20
2022-12-04T20:02:20.180Z,101.18
2022-12-04T20:04:46.653Z,99.85
2022-12-04T20:07:13.230Z,101.40
2022-12-04T20:09:39.779Z,94.17
2022-12-04T20:12:06.559Z,90.82
2022-12-04T20:14:33.139Z,97.97
2022-12-04T20:17:01.618Z,86.07
2022-12-04T20:19:28.030Z,92.75
2022-12-04T20:21:59.056Z,89.93
2022-12-04T20:24:26.135Z,87.22
2022-12-04T20:26:52.557Z,82.37
2022-12-04T20:29:19.130Z,85.43
2022-12-04T20:31:46.770Z,97.80
2022-12-04T20:36:43.947Z,92.38
2022-12-04T20:39:12.121Z,90.30
2022-12-04T20:41:38.770Z,86.55
2022-12-04T20:44:07.581Z,94.80
2022-12-04T20:46:36.879Z,94.30
2022-12-04T20:49:06.373Z,94.55
2022-12-04T20:51:36.568Z,87.78
2022-12-04T20:54:03.938Z,92.18
2022-12-04T20:56:33.183Z,93.75
2022-12-04T20:59:02.473Z,95.07
2022-12-04T21:01:29.721Z,90.80
2022-12-04T21:03:58.388Z,84.72
2022-12-04T21:06:34.459Z,81.95
2022-12-04T21:09:05.918Z,84.00
2022-12-04T21:11:37.950Z,82.70
2022-12-04T21:14:26.318Z,90.72
2022-12-04T21:16:53.145Z,82.97
2022-12-04T21:19:21.038Z,69.28
2022-12-04T21:21:47.704Z,81.80
2022-12-04T21:24:17.263Z,76.17
2022-12-04T21:26:44.304Z,74.25
2022-12-04T21:29:11.036Z,75.47
2022-12-04T21:31:38.251Z,73.45
2022-12-04T21:34:06.855Z,78.30
2022-12-04T21:36:33.524Z,75.80
2022-12-04T21:39:00.567Z,75.17
2022-12-04T21:41:46.259Z,70.22
2022-12-04T21:44:16.850Z,75.80
2022-12-04T21:46:44.411Z,76.22
2022-12-04T21:51:56.686Z,74.83
2022-12-04T21:54:24.022Z,79.90
2022-12-04T21:56:50.424Z,69.85
2022-12-04T21:59:16.851Z,69.40
2022-12-04T22:01:43.324Z,73.90
2022-12-04T22:04:09.841Z,73.07
2022-12-04T22:06:37.831Z,78.05
2022-12-04T22:09:07.807Z,72.95
2022-12-04T22:11:34.629Z,67.22
2022-12-04T22:14:01.195Z,71.72
2022-12-04T22:16:30.518Z,73.03
2022-12-04T22:18:58.802Z,70.47
2022-12-04T22:23:58.909Z,69.30
2022-12-04T22:26:26.483Z,66.35
2022-12-04T22:31:21.624Z,66.70
2022-12-04T22:33:50.178Z,63.22
2022-12-04T22:36:22.181Z,62.33
2022-12-04T22:39:11.350Z,60.60
2022-12-04T22:41:35.495Z,63.03
2022-12-04T22:44:01.879Z,54.55
2022-12-04T22:46:28.379Z,57.50
2022-12-04T22:48:54.812Z,55.70
2022-12-04T22:51:22.412Z,53.22
2022-12-04T22:56:31.026Z,52.60
2022-12-04T22:58:58.238Z,51.20
2022-12-04T23:01:31.401Z,48.85
2022-12-04T23:03:58.723Z,50.65
2022-12-04T23:06:32.798Z,47.33
2022-12-04T23:09:06.451Z,49.00
2022-12-04T23:11:33.233Z,50.05
2022-12-04T23:14:02.312Z,42.17
2022-12-04T23:16:30.451Z,45.38
2022-12-04T23:18:57.471Z,46.13
2022-12-04T23:21:24.482Z,45.22
2022-12-04T23:23:52.528Z,49.97
2022-12-04T23:26:21.359Z,46.28
2022-12-04T23:28:47.820Z,43.00
2022-12-04T23:31:14.854Z,40.75
2022-12-04T23:33:41.625Z,44.22
2022-12-04T23:36:09.687Z,46.40
2022-12-04T23:38:37.554Z,42.97
2022-12-04T23:41:06.747Z,44.78
2022-12-04T23:43:33.859Z,47.35
2022-12-04T23:46:03.364Z,55.78
2022-12-04T23:48:32.335Z,51.22
2022-12-04T23:50:58.869Z,46.33
2022-12-04T23:53:25.256Z,50.00
2022-12-04T23:56:04.946Z,51.67
2022-12-04T23:58:32.798Z,48.60
